Time;durP1;ratioP1;P1;durP2;ratioP2;P2;SDS_P1;SDS_P2;PMS_P1;PMS_P2;Temp;Humidity;BMP_temperature;BMP_pressure;BME280_temperature;BME280_humidity;BME280_pressure;Samples;Min_cycle;Max_cycle;Signal;HPM_P1;HPM_P2
2024/02/17 00:00:40;;;;;;;2.10;1.90;;;12.80;99.90;;;;;;5037798;28;20736;-78
2024/02/17 00:03:06;;;;;;;3.42;2.05;;;12.80;99.90;;;;;;5036120;28;20755;-78
2024/02/17 00:05:32;;;;;;;2.00;1.80;;;12.70;99.90;;;;;;5024551;28;20910;-79
2024/02/17 00:07:57;;;;;;;2.40;2.00;;;12.70;99.90;;;;;;5054515;28;20381;-79
2024/02/17 00:10:23;;;;;;;2.58;1.98;;;12.70;99.90;;;;;;5044414;28;20389;-78
2024/02/17 00:12:48;;;;;;;3.23;2.30;;;12.70;99.90;;;;;;5062146;28;20757;-78
2024/02/17 00:15:14;;;;;;;3.70;2.20;;;12.70;99.90;;;;;;5052179;28;20406;-79
2024/02/17 00:17:40;;;;;;;3.25;2.33;;;12.70;99.90;;;;;;5043012;28;20402;-78
2024/02/17 00:20:07;;;;;;;3.03;2.30;;;12.60;99.90;;;;;;5043270;28;20379;-79
2024/02/17 00:22:32;;;;;;;3.15;2.30;;;12.60;99.90;;;;;;5025564;28;20387;-78
2024/02/17 00:24:58;;;;;;;4.10;2.33;;;12.30;99.90;;;;;;5044176;28;20472;-78
2024/02/17 00:27:23;;;;;;;3.10;2.20;;;12.60;99.90;;;;;;5029151;28;20409;-78
2024/02/17 00:29:49;;;;;;;3.17;2.40;;;12.60;99.90;;;;;;5046062;28;20490;-79
2024/02/17 00:32:14;;;;;;;4.10;2.50;;;12.60;99.90;;;;;;5045900;28;20486;-78
2024/02/17 00:34:41;;;;;;;4.50;2.70;;;12.60;99.90;;;;;;5044241;28;20410;-79
2024/02/17 00:37:06;;;;;;;3.30;3.00;;;12.40;99.90;;;;;;5041983;28;20405;-79
2024/02/17 00:39:32;;;;;;;3.28;2.42;;;12.50;99.90;;;;;;5042146;28;20418;-77
2024/02/17 00:41:57;;;;;;;2.67;2.47;;;12.50;99.90;;;;;;5042348;28;20415;-78
2024/02/17 00:44:24;;;;;;;3.70;2.60;;;12.40;99.90;;;;;;5041188;28;20387;-80
2024/02/17 00:46:50;;;;;;;3.53;2.80;;;12.40;99.90;;;;;;5024997;28;20414;-79
2024/02/17 00:49:16;;;;;;;4.32;3.10;;;12.40;99.90;;;;;;5036366;28;20402;-78
2024/02/17 00:51:41;;;;;;;3.67;3.37;;;12.50;99.90;;;;;;5044214;28;20451;-79
2024/02/17 00:54:07;;;;;;;3.80;2.85;;;12.40;99.90;;;;;;5024162;28;20387;-79
2024/02/17 00:56:33;;;;;;;4.32;3.22;;;12.40;99.90;;;;;;5042624;28;20391;-79
2024/02/17 00:58:58;;;;;;;5.43;3.30;;;12.40;99.90;;;;;;5024576;28;20383;-79
2024/02/17 01:01:26;;;;;;;3.63;2.90;;;12.60;99.90;;;;;;5047001;28;20727;-78
2024/02/17 01:03:51;;;;;;;3.90;3.00;;;12.40;99.90;;;;;;5041687;28;20405;-78
2024/02/17 01:06:17;;;;;;;3.58;2.88;;;12.10;99.90;;;;;;5031927;28;20744;-78
2024/02/17 01:08:42;;;;;;;2.95;2.65;;;12.10;99.90;;;;;;5019556;28;20425;-78
2024/02/17 01:11:08;;;;;;;3.20;2.90;;;12.50;99.90;;;;;;5043400;28;20403;-78
2024/02/17 01:13:33;;;;;;;3.73;3.10;;;12.60;99.90;;;;;;5024049;28;20399;-79
2024/02/17 01:15:59;;;;;;;3.50;2.70;;;12.50;99.90;;;;;;5042012;28;20411;-80
2024/02/17 01:18:25;;;;;;;3.37;2.93;;;12.40;99.90;;;;;;5037064;28;20798;-78
2024/02/17 01:20:51;;;;;;;4.47;2.93;;;12.60;99.90;;;;;;5046090;28;20406;-79
2024/02/17 01:23:16;;;;;;;4.03;3.00;;;12.30;99.90;;;;;;5024097;28;20482;-78
2024/02/17 01:25:42;;;;;;;3.33;3.00;;;12.40;99.90;;;;;;5041665;28;20783;-78
2024/02/17 01:28:07;;;;;;;4.30;3.10;;;12.30;99.90;;;;;;5023548;28;20403;-78
2024/02/17 01:30:33;;;;;;;4.75;3.50;;;12.20;99.90;;;;;;5041907;28;20383;-79
2024/02/17 01:32:58;;;;;;;3.83;3.13;;;12.00;99.90;;;;;;5061551;28;20389;-78
2024/02/17 01:35:24;;;;;;;3.70;3.00;;;12.20;99.90;;;;;;5053118;28;20946;-78
2024/02/17 01:37:50;;;;;;;4.10;2.90;;;12.10;99.90;;;;;;5031312;28;20519;-78
2024/02/17 01:40:17;;;;;;;3.10;2.80;;;12.10;99.90;;;;;;5021096;28;20388;-78
2024/02/17 01:42:43;;;;;;;3.20;2.90;;;12.10;99.90;;;;;;5018977;28;20454;-78
2024/02/17 01:45:10;;;;;;;3.40;3.10;;;12.10;99.90;;;;;;5026890;28;20397;-78
2024/02/17 01:47:37;;;;;;;3.60;3.10;;;11.50;99.90;;;;;;5058548;28;20420;-78
2024/02/17 01:50:04;;;;;;;5.82;3.00;;;11.90;99.90;;;;;;5060199;28;20416;-78
2024/02/17 01:52:30;;;;;;;4.60;3.50;;;12.00;99.90;;;;;;5056531;28;20400;-78
2024/02/17 01:54:57;;;;;;;3.40;3.10;;;11.90;99.90;;;;;;5011957;28;20455;-78
2024/02/17 01:57:23;;;;;;;4.20;3.60;;;11.80;99.90;;;;;;5019046;28;20427;-78
2024/02/17 01:59:49;;;;;;;4.00;3.47;;;11.80;99.90;;;;;;5016554;28;20396;-78
2024/02/17 02:02:15;;;;;;;4.43;3.63;;;11.80;99.90;;;;;;5019690;28;20388;-78
2024/02/17 02:04:40;;;;;;;4.90;3.70;;;11.80;99.90;;;;;;5039674;28;20398;-77
2024/02/17 02:07:06;;;;;;;3.90;3.60;;;11.70;99.90;;;;;;5032459;28;20395;-77
2024/02/17 02:09:31;;;;;;;4.10;3.70;;;11.60;99.90;;;;;;5044770;28;20393;-77
2024/02/17 02:11:57;;;;;;;4.40;4.00;;;11.70;99.90;;;;;;5066665;28;20393;-77
2024/02/17 02:14:23;;;;;;;4.30;3.90;;;11.60;99.90;;;;;;5067842;28;20436;-77
2024/02/17 02:16:49;;;;;;;3.80;3.40;;;11.70;99.90;;;;;;5061353;28;20394;-77
2024/02/17 02:19:15;;;;;;;4.23;3.80;;;11.60;99.90;;;;;;5047255;28;20474;-77
2024/02/17 02:21:42;;;;;;;4.10;3.70;;;11.60;99.90;;;;;;5054035;28;20405;-77
2024/02/17 02:24:08;;;;;;;5.22;4.40;;;11.60;99.90;;;;;;5067885;28;20393;-77
2024/02/17 02:26:34;;;;;;;5.05;4.15;;;11.50;99.90;;;;;;5054032;28;20876;-77
2024/02/17 02:29:01;;;;;;;4.88;4.00;;;11.60;99.90;;;;;;5047183;28;20755;-77
2024/02/17 02:31:27;;;;;;;4.43;3.85;;;11.60;99.90;;;;;;5046139;28;20398;-78
2024/02/17 02:33:52;;;;;;;4.77;4.30;;;11.50;99.90;;;;;;5063283;28;20383;-78
2024/02/17 02:36:20;;;;;;;4.80;4.30;;;11.50;99.90;;;;;;5024285;28;20969;-78
2024/02/17 02:38:45;;;;;;;5.50;4.37;;;11.50;99.90;;;;;;5009730;28;20740;-78
2024/02/17 02:41:11;;;;;;;4.63;4.13;;;11.50;99.90;;;;;;5041025;28;20389;-78
2024/02/17 02:43:37;;;;;;;4.50;4.10;;;11.60;99.90;;;;;;5038940;28;20747;-77
2024/02/17 02:46:03;;;;;;;5.53;4.00;;;11.60;99.90;;;;;;5035956;28;20413;-78
2024/02/17 02:48:28;;;;;;;4.75;3.53;;;11.70;99.90;;;;;;5039240;28;20470;-78
2024/02/17 02:50:54;;;;;;;4.70;4.00;;;11.60;99.90;;;;;;5056917;28;20402;-78
2024/02/17 02:53:20;;;;;;;4.63;3.90;;;11.60;99.90;;;;;;5021033;28;20770;-78
2024/02/17 02:55:45;;;;;;;4.50;4.10;;;11.60;99.90;;;;;;5059078;28;20960;-78
2024/02/17 02:58:11;;;;;;;4.53;4.13;;;11.60;99.90;;;;;;5059787;28;20791;-78
2024/02/17 03:00:37;;;;;;;4.40;4.00;;;10.90;99.90;;;;;;5046862;28;20399;-78
2024/02/17 03:03:02;;;;;;;4.30;3.90;;;11.60;99.90;;;;;;5050010;28;20829;-78
2024/02/17 03:05:28;;;;;;;4.30;3.90;;;11.60;99.90;;;;;;5054761;28;20517;-77
2024/02/17 03:07:54;;;;;;;4.50;3.90;;;12.00;99.90;;;;;;5046169;28;20406;-77
2024/02/17 03:10:19;;;;;;;3.50;3.20;;;11.60;99.90;;;;;;5036909;28;20387;-78
2024/02/17 03:12:45;;;;;;;4.97;4.00;;;11.60;99.90;;;;;;5036951;28;20399;-78
2024/02/17 03:15:11;;;;;;;5.93;4.30;;;11.60;99.90;;;;;;5043489;28;20405;-78
2024/02/17 03:17:36;;;;;;;4.40;4.00;;;11.60;99.90;;;;;;5062979;28;20377;-78
2024/02/17 03:20:04;;;;;;;4.50;3.65;;;11.50;99.90;;;;;;5063388;28;20385;-77
2024/02/17 03:22:30;;;;;;;4.60;4.20;;;11.70;99.90;;;;;;5032160;28;20415;-78
2024/02/17 03:24:56;;;;;;;4.70;4.05;;;11.70;99.90;;;;;;5042660;28;20391;-77
2024/02/17 03:27:21;;;;;;;5.00;4.50;;;11.70;99.90;;;;;;5037129;28;20398;-78
2024/02/17 03:29:47;;;;;;;4.63;4.13;;;11.70;99.90;;;;;;5039885;28;20391;-77
2024/02/17 03:32:13;;;;;;;6.20;4.40;;;11.60;99.90;;;;;;5042672;28;20399;-77
2024/02/17 03:34:38;;;;;;;4.90;4.40;;;11.60;99.90;;;;;;5041437;28;20407;-77
2024/02/17 03:37:06;;;;;;;5.63;4.90;;;11.60;99.90;;;;;;5043333;28;20457;-77
2024/02/17 03:39:32;;;;;;;5.90;5.30;;;11.70;99.90;;;;;;5033382;28;20549;-77
2024/02/17 03:41:58;;;;;;;5.15;4.65;;;11.50;99.90;;;;;;5033194;28;20394;-77
2024/02/17 03:44:23;;;;;;;6.83;5.20;;;11.50;99.90;;;;;;5022694;28;20400;-78
2024/02/17 03:46:49;;;;;;;5.38;4.75;;;11.60;99.90;;;;;;5024451;28;20377;-78
2024/02/17 03:49:19;;;;;;;7.28;4.80;;;11.60;99.90;;;;;;5060138;28;20428;-79
2024/02/17 03:51:45;;;;;;;5.68;5.03;;;11.60;99.90;;;;;;5056663;28;20794;-79
2024/02/17 03:54:11;;;;;;;6.10;5.50;;;12.50;99.90;;;;;;5032410;28;20434;-78
2024/02/17 03:56:36;;;;;;;5.73;5.23;;;11.60;99.90;;;;;;5040115;28;20375;-77
2024/02/17 03:59:02;;;;;;;5.47;4.97;;;11.50;99.90;;;;;;5022867;28;20390;-78
2024/02/17 04:01:37;;;;;;;5.10;4.70;;;11.60;99.90;;;;;;5039297;28;20422;-77
2024/02/17 04:04:05;;;;;;;5.10;4.70;;;11.60;99.90;;;;;;5065863;22;20391;-81
2024/02/17 04:06:31;;;;;;;5.93;5.20;;;11.60;99.90;;;;;;5071800;28;20386;-79
2024/02/17 04:08:58;;;;;;;6.20;5.20;;;11.60;99.90;;;;;;5066511;28;20889;-79
2024/02/17 04:11:24;;;;;;;7.65;6.82;;;11.60;99.90;;;;;;5061984;28;20442;-79
2024/02/17 04:13:50;;;;;;;6.82;6.22;;;11.50;99.90;;;;;;5071888;28;20387;-80
2024/02/17 04:16:15;;;;;;;6.60;6.00;;;11.50;99.90;;;;;;5075010;28;20488;-79
2024/02/17 04:18:41;;;;;;;8.45;6.95;;;11.30;99.90;;;;;;5077824;28;20430;-80
2024/02/17 04:21:06;;;;;;;8.90;8.00;;;11.10;99.90;;;;;;5078498;28;20419;-79
2024/02/17 04:23:32;;;;;;;9.33;8.43;;;10.90;99.90;;;;;;5076930;28;20396;-79
2024/02/17 04:26:01;;;;;;;9.20;8.40;;;10.90;99.90;;;;;;5074006;28;20395;-79
2024/02/17 04:28:27;;;;;;;10.02;9.00;;;10.90;99.90;;;;;;5072898;28;20384;-79
2024/02/17 04:30:52;;;;;;;9.47;8.57;;;10.90;99.90;;;;;;5079829;28;20732;-79
2024/02/17 04:33:18;;;;;;;10.13;9.13;;;10.80;99.90;;;;;;5076682;28;20481;-79
2024/02/17 04:35:43;;;;;;;10.23;9.15;;;10.30;99.90;;;;;;5078242;28;20395;-79
2024/02/17 04:38:09;;;;;;;10.20;9.20;;;10.70;99.90;;;;;;5078585;28;20388;-78
2024/02/17 04:40:35;;;;;;;10.32;9.32;;;10.70;99.90;;;;;;5073255;28;20383;-79
2024/02/17 04:43:00;;;;;;;10.18;9.18;;;10.70;99.90;;;;;;5071684;28;20395;-79
2024/02/17 04:45:26;;;;;;;10.57;9.15;;;10.70;99.90;;;;;;5072350;28;20383;-80
2024/02/17 04:47:52;;;;;;;9.20;8.30;;;10.40;99.90;;;;;;5071622;28;20392;-80
2024/02/17 04:50:18;;;;;;;9.07;8.27;;;10.50;99.90;;;;;;5071285;28;20430;-80
2024/02/17 04:52:43;;;;;;;9.10;8.20;;;10.60;99.90;;;;;;5070723;28;20387;-80
2024/02/17 04:55:09;;;;;;;8.40;7.50;;;10.60;99.90;;;;;;5071580;28;20435;-79
2024/02/17 04:57:35;;;;;;;6.53;5.93;;;10.60;99.90;;;;;;5070528;28;20384;-80
2024/02/17 05:00:01;;;;;;;4.70;4.30;;;10.60;99.90;;;;;;5072112;28;20395;-80
2024/02/17 05:02:26;;;;;;;5.15;4.75;;;10.50;99.90;;;;;;5070333;28;21044;-80
2024/02/17 05:04:52;;;;;;;4.80;4.40;;;10.50;99.90;;;;;;5070683;28;20404;-80
2024/02/17 05:07:18;;;;;;;4.73;4.17;;;10.50;99.90;;;;;;5070703;28;20478;-80
2024/02/17 05:09:44;;;;;;;4.53;4.13;;;10.50;99.90;;;;;;5071679;28;20392;-80
2024/02/17 05:12:09;;;;;;;5.30;4.03;;;10.40;99.90;;;;;;5070657;28;20442;-80
2024/02/17 05:14:37;;;;;;;4.40;4.00;;;10.40;99.90;;;;;;5071719;28;20431;-80
2024/02/17 05:17:04;;;;;;;4.40;4.00;;;10.50;99.90;;;;;;5072265;28;20929;-79
2024/02/17 05:19:29;;;;;;;4.40;4.00;;;10.40;99.90;;;;;;5070577;28;20879;-80
2024/02/17 05:21:57;;;;;;;5.20;4.20;;;10.40;99.90;;;;;;5071111;28;20391;-80
2024/02/17 05:24:23;;;;;;;4.72;4.32;;;10.50;99.90;;;;;;5077687;28;20875;-79
2024/02/17 05:26:49;;;;;;;4.72;4.32;;;10.50;99.90;;;;;;5078253;28;20394;-80
2024/02/17 05:29:15;;;;;;;5.40;4.85;;;10.40;99.90;;;;;;5076973;28;20464;-80
2024/02/17 05:31:40;;;;;;;5.53;4.43;;;10.50;99.90;;;;;;5077970;28;20438;-79
2024/02/17 05:34:06;;;;;;;4.93;4.53;;;10.50;99.90;;;;;;5078911;28;20413;-80
2024/02/17 05:36:32;;;;;;;6.80;5.75;;;10.50;99.90;;;;;;5071795;28;20411;-80
2024/02/17 05:38:57;;;;;;;5.93;5.32;;;10.50;99.90;;;;;;5071975;28;20394;-80
2024/02/17 05:41:23;;;;;;;6.00;5.33;;;10.50;99.90;;;;;;5072000;28;20375;-80
2024/02/17 05:43:49;;;;;;;8.60;7.18;;;10.60;99.90;;;;;;5070081;28;20384;-79
2024/02/17 05:46:15;;;;;;;7.25;6.10;;;10.60;99.90;;;;;;5075268;28;20407;-80
2024/02/17 05:48:43;;;;;;;6.15;5.55;;;10.60;99.90;;;;;;5071485;28;20731;-79
2024/02/17 05:51:08;;;;;;;6.10;5.32;;;10.60;99.90;;;;;;5071614;28;20390;-80
2024/02/17 05:53:34;;;;;;;6.20;5.60;;;10.60;99.90;;;;;;5074095;28;20742;-80
2024/02/17 05:56:00;;;;;;;6.70;6.00;;;10.60;99.90;;;;;;5070762;28;20919;-80
2024/02/17 05:58:25;;;;;;;6.43;5.57;;;10.60;99.90;;;;;;5071616;28;20411;-80
2024/02/17 06:00:51;;;;;;;6.22;5.63;;;10.70;99.90;;;;;;5071756;28;20379;-80
2024/02/17 06:03:16;;;;;;;6.00;5.40;;;10.70;99.90;;;;;;5074303;28;20440;-80
2024/02/17 06:05:42;;;;;;;6.60;5.90;;;10.70;99.90;;;;;;5078244;28;20396;-80
2024/02/17 06:08:08;;;;;;;7.10;6.40;;;10.70;99.90;;;;;;5075239;28;20776;-80
2024/02/17 06:10:33;;;;;;;6.40;5.80;;;10.70;99.90;;;;;;5099284;28;20402;-81
2024/02/17 06:12:59;;;;;;;6.10;5.50;;;10.70;99.90;;;;;;5099876;28;20407;-80
2024/02/17 06:15:24;;;;;;;6.07;5.50;;;10.70;99.90;;;;;;5091133;28;20775;-81
2024/02/17 06:21:10;;;;;;;7.07;6.27;;;10.60;99.90;;;;;;5076411;28;20398;-80
2024/02/17 06:23:23;;;;;;;7.50;6.80;;;10.50;99.90;;;;;;5075567;28;20463;-80
2024/02/17 06:25:49;;;;;;;7.80;7.00;;;10.50;99.90;;;;;;5075143;28;20474;-80
2024/02/17 06:28:14;;;;;;;8.83;7.80;;;10.50;99.90;;;;;;5075858;28;20383;-80
2024/02/17 06:30:40;;;;;;;9.40;7.20;;;10.50;99.90;;;;;;5075427;28;20411;-80
2024/02/17 06:33:05;;;;;;;8.88;7.78;;;10.50;99.90;;;;;;5076218;28;20415;-81
2024/02/17 06:35:31;;;;;;;8.70;7.80;;;10.60;99.90;;;;;;5074663;28;20408;-80
2024/02/17 06:37:57;;;;;;;10.03;8.00;;;10.50;99.90;;;;;;5074836;28;20438;-80
2024/02/17 06:40:22;;;;;;;8.63;7.83;;;10.60;99.90;;;;;;5075138;28;20528;-80
2024/02/17 06:42:48;;;;;;;10.32;9.15;;;10.60;99.90;;;;;;5075051;28;20391;-80
2024/02/17 06:45:16;;;;;;;10.68;9.27;;;10.50;99.90;;;;;;5074321;28;20875;-81
2024/02/17 06:47:42;;;;;;;11.48;9.00;;;10.50;99.90;;;;;;5073374;28;20387;-80
2024/02/17 06:50:10;;;;;;;10.38;9.38;;;10.50;99.90;;;;;;5074524;28;20478;-81
2024/02/17 06:52:36;;;;;;;11.27;10.02;;;10.00;99.90;;;;;;5072718;28;20392;-80
2024/02/17 06:55:02;;;;;;;11.90;10.60;;;10.50;99.90;;;;;;5072317;28;20453;-80
2024/02/17 06:57:27;;;;;;;14.37;11.27;;;10.40;99.90;;;;;;5074450;28;20550;-81
2024/02/17 06:59:54;;;;;;;14.40;12.18;;;10.30;99.90;;;;;;5074422;28;20383;-80
2024/02/17 07:02:22;;;;;;;13.70;11.67;;;10.30;99.90;;;;;;5072923;28;20419;-81
2024/02/17 07:04:52;;;;;;;15.20;11.80;;;10.30;99.90;;;;;;5073472;28;20434;-80
2024/02/17 07:07:18;;;;;;;15.05;12.63;;;10.30;99.90;;;;;;5072975;28;20438;-81
2024/02/17 07:09:44;;;;;;;15.00;13.20;;;10.30;99.90;;;;;;5080042;28;20391;-80
2024/02/17 07:12:10;;;;;;;18.45;14.30;;;10.30;99.90;;;;;;5083404;28;20390;-80
2024/02/17 07:14:37;;;;;;;16.70;14.23;;;10.20;99.90;;;;;;5080524;28;20396;-80
2024/02/17 07:17:04;;;;;;;17.95;14.00;;;10.20;99.90;;;;;;5075527;28;20388;-80
2024/02/17 07:19:29;;;;;;;17.88;13.90;;;10.20;99.90;;;;;;5072213;28;20522;-81
2024/02/17 07:21:55;;;;;;;18.88;15.02;;;10.20;99.90;;;;;;5074191;28;20459;-80
2024/02/17 07:24:20;;;;;;;19.63;14.80;;;10.20;99.90;;;;;;5073956;28;20388;-80
2024/02/17 07:26:46;;;;;;;17.00;14.00;;;10.20;99.90;;;;;;5076995;28;20816;-81
2024/02/17 07:29:11;;;;;;;18.07;15.07;;;10.30;99.90;;;;;;5074950;28;20395;-81
2024/02/17 07:31:43;;;;;;;17.67;13.60;;;10.20;99.90;;;;;;5074540;28;20383;-81
2024/02/17 07:34:11;;;;;;;16.58;13.90;;;10.20;99.90;;;;;;5073960;28;20411;-80
2024/02/17 07:36:37;;;;;;;15.93;13.43;;;10.20;99.90;;;;;;5074056;28;20759;-80
2024/02/17 07:39:02;;;;;;;16.67;13.27;;;10.30;99.90;;;;;;5073747;28;20395;-80
2024/02/17 07:41:28;;;;;;;17.48;14.15;;;9.80;99.90;;;;;;5073567;28;20482;-80
2024/02/17 07:43:54;;;;;;;16.30;12.90;;;10.20;99.90;;;;;;5073018;28;20368;-80
2024/02/17 07:46:20;;;;;;;16.20;11.90;;;10.20;99.90;;;;;;5074902;28;20390;-81
2024/02/17 07:48:46;;;;;;;13.93;12.43;;;10.20;99.90;;;;;;5072559;28;20412;-81
2024/02/17 07:51:12;;;;;;;14.93;12.63;;;10.20;99.90;;;;;;5065948;28;21010;-81
2024/02/17 07:53:38;;;;;;;13.45;12.05;;;10.20;99.90;;;;;;5072134;28;20414;-80
2024/02/17 07:56:04;;;;;;;14.80;11.30;;;10.10;99.90;;;;;;5071438;28;20779;-79
2024/02/17 07:58:30;;;;;;;18.55;13.70;;;10.00;99.90;;;;;;5069217;28;20756;-78
2024/02/17 08:00:56;;;;;;;16.17;13.90;;;10.20;99.90;;;;;;5073778;28;20494;-79
2024/02/17 08:03:21;;;;;;;15.60;13.80;;;10.10;99.90;;;;;;5069837;28;20432;-78
2024/02/17 08:05:48;;;;;;;18.10;14.50;;;10.10;99.90;;;;;;5075892;28;20422;-79
2024/02/17 08:08:14;;;;;;;17.40;14.18;;;10.20;99.90;;;;;;5079871;28;20418;-78
2024/02/17 08:10:40;;;;;;;17.60;14.07;;;10.20;99.90;;;;;;5079604;28;20480;-78
2024/02/17 08:13:05;;;;;;;14.60;13.10;;;10.20;99.90;;;;;;5092162;28;20394;-77
2024/02/17 08:15:31;;;;;;;17.20;13.50;;;10.00;99.90;;;;;;5091270;28;20455;-77
2024/02/17 08:17:56;;;;;;;18.63;14.53;;;10.10;99.90;;;;;;5080903;28;20468;-77
2024/02/17 08:20:22;;;;;;;17.60;14.00;;;10.20;99.90;;;;;;5089129;28;20386;-77
2024/02/17 08:22:48;;;;;;;16.88;13.68;;;10.20;99.90;;;;;;5075830;28;20392;-77
2024/02/17 08:25:14;;;;;;;17.70;14.60;;;10.10;99.90;;;;;;5090456;28;20391;-77
2024/02/17 08:27:43;;;;;;;18.40;14.88;;;10.20;99.90;;;;;;5087798;28;20451;-77
2024/02/17 08:30:09;;;;;;;17.20;15.00;;;10.20;99.90;;;;;;5091969;28;20472;-77
2024/02/17 08:32:35;;;;;;;20.60;15.68;;;10.30;99.90;;;;;;5087495;28;20857;-77
2024/02/17 08:35:01;;;;;;;19.90;15.02;;;10.20;99.90;;;;;;5092931;28;20488;-74
2024/02/17 08:37:27;;;;;;;17.52;14.45;;;10.10;99.90;;;;;;5080423;28;20382;-75
2024/02/17 08:39:52;;;;;;;17.10;15.20;;;10.20;99.90;;;;;;5086925;28;20920;-75
2024/02/17 08:42:18;;;;;;;19.60;16.00;;;10.20;99.90;;;;;;5075710;28;20410;-74
2024/02/17 08:44:44;;;;;;;17.20;15.00;;;10.20;99.90;;;;;;5072473;28;20911;-76
2024/02/17 08:47:10;;;;;;;20.23;15.40;;;10.00;99.90;;;;;;5084550;28;20425;-76
2024/02/17 08:49:36;;;;;;;19.60;15.85;;;10.20;99.90;;;;;;5079283;28;20384;-76
2024/02/17 08:52:02;;;;;;;20.07;15.23;;;10.20;99.90;;;;;;5089646;28;20392;-76
2024/02/17 08:54:27;;;;;;;18.20;14.50;;;10.20;99.90;;;;;;5086767;28;20394;-76
2024/02/17 08:56:54;;;;;;;20.13;15.77;;;10.10;99.90;;;;;;5084111;28;20987;-76
2024/02/17 08:59:19;;;;;;;16.63;14.73;;;10.20;99.90;;;;;;5068064;28;20407;-75
2024/02/17 09:01:45;;;;;;;20.60;15.30;;;10.30;99.90;;;;;;5078280;28;20388;-77
2024/02/17 09:04:11;;;;;;;18.87;14.80;;;9.80;99.90;;;;;;5073378;28;20493;-77
2024/02/17 09:06:36;;;;;;;18.23;15.20;;;10.30;99.90;;;;;;5091162;28;20382;-77
2024/02/17 09:09:03;;;;;;;17.10;15.30;;;10.30;99.90;;;;;;5080884;28;20451;-76
2024/02/17 09:11:28;;;;;;;17.58;15.07;;;10.30;99.90;;;;;;5083447;28;20476;-76
2024/02/17 09:13:54;;;;;;;19.75;16.80;;;10.30;99.90;;;;;;5081332;28;20832;-76
2024/02/17 09:16:20;;;;;;;17.92;15.32;;;10.40;99.90;;;;;;5082524;28;20402;-76
2024/02/17 09:18:45;;;;;;;18.80;15.47;;;10.40;99.90;;;;;;5090979;28;20468;-76
2024/02/17 09:21:11;;;;;;;20.40;15.33;;;10.50;99.90;;;;;;5068629;28;20410;-77
2024/02/17 09:23:36;;;;;;;16.10;14.30;;;10.50;99.90;;;;;;5068060;28;20403;-76
2024/02/17 09:26:02;;;;;;;19.02;15.65;;;10.50;99.90;;;;;;5069490;28;20404;-76
2024/02/17 09:28:27;;;;;;;18.73;15.32;;;10.50;99.90;;;;;;5071216;28;20477;-77
2024/02/17 09:30:53;;;;;;;17.50;15.47;;;10.50;99.90;;;;;;5069677;28;20461;-76
2024/02/17 09:33:27;;;;;;;19.83;15.80;;;10.50;99.90;;;;;;5069856;28;20410;-76
2024/02/17 09:35:52;;;;;;;18.50;16.02;;;10.50;99.90;;;;;;5069210;28;20414;-76
2024/02/17 09:38:18;;;;;;;17.35;15.15;;;10.40;99.90;;;;;;5070328;28;20384;-77
2024/02/17 09:40:43;;;;;;;18.63;15.10;;;10.50;99.90;;;;;;5070135;28;20402;-76
2024/02/17 09:43:09;;;;;;;19.20;16.02;;;10.50;99.90;;;;;;5069959;28;20483;-77
2024/02/17 09:45:35;;;;;;;20.45;16.58;;;10.50;99.90;;;;;;5069611;28;20387;-76
2024/02/17 09:48:01;;;;;;;19.93;16.60;;;10.60;99.90;;;;;;5069846;28;20798;-76
2024/02/17 09:50:28;;;;;;;20.10;16.17;;;10.60;99.90;;;;;;5068272;28;20442;-77
2024/02/17 09:52:54;;;;;;;20.17;16.23;;;10.50;99.90;;;;;;5070204;28;20391;-77
2024/02/17 09:55:21;;;;;;;16.88;15.07;;;10.50;99.90;;;;;;5069025;28;20472;-77
2024/02/17 09:57:46;;;;;;;18.95;15.82;;;10.50;99.90;;;;;;5070296;28;20380;-77
2024/02/17 10:00:13;;;;;;;18.83;15.63;;;10.60;99.90;;;;;;5068626;28;20461;-76
2024/02/17 10:02:40;;;;;;;21.60;17.05;;;10.80;99.90;;;;;;5070270;28;20383;-76
2024/02/17 10:05:07;;;;;;;19.08;15.35;;;10.80;99.90;;;;;;5066684;28;20415;-75
2024/02/17 10:07:45;;;;;;;18.30;16.25;;;10.70;99.90;;;;;;5077909;28;20380;-75
2024/02/17 10:10:11;;;;;;;19.08;16.45;;;10.70;99.90;;;;;;5084506;28;20389;-76
2024/02/17 10:12:52;;;;;;;18.03;15.13;;;10.80;99.90;;;;;;5074272;28;20388;-76
2024/02/17 10:15:19;;;;;;;19.20;17.25;;;10.80;99.90;;;;;;5072823;28;20618;-75
2024/02/17 10:17:46;;;;;;;19.83;15.48;;;10.80;99.90;;;;;;5071773;28;20386;-75
2024/02/17 10:20:12;;;;;;;18.33;15.35;;;10.80;99.90;;;;;;5089019;22;20428;-76
2024/02/17 10:22:42;;;;;;;20.33;15.90;;;10.80;99.90;;;;;;5066720;28;20760;-76
2024/02/17 10:25:08;;;;;;;19.58;16.48;;;10.40;99.90;;;;;;5068202;28;21647;-77
2024/02/17 10:27:33;;;;;;;20.08;16.15;;;10.70;99.90;;;;;;5066931;28;20399;-77
2024/02/17 10:30:08;;;;;;;21.85;16.05;;;10.70;99.90;;;;;;5069245;28;20399;-77
2024/02/17 10:32:34;;;;;;;21.70;15.63;;;10.80;99.90;;;;;;5087209;28;20758;-77
2024/02/17 10:35:02;;;;;;;21.92;17.42;;;10.60;99.90;;;;;;5088035;28;20406;-77
2024/02/17 10:37:30;;;;;;;21.90;16.27;;;10.80;99.90;;;;;;5089504;28;20870;-78
2024/02/17 10:40:00;;;;;;;18.75;15.60;;;10.80;99.90;;;;;;5089779;28;20511;-77
2024/02/17 10:42:26;;;;;;;18.85;16.83;;;10.80;99.90;;;;;;5087272;28;20382;-77
2024/02/17 10:44:54;;;;;;;19.08;16.42;;;10.80;99.90;;;;;;5088063;28;20811;-77
2024/02/17 10:47:33;;;;;;;21.50;16.80;;;10.80;99.90;;;;;;5088950;28;20390;-78
2024/02/17 10:50:08;;;;;;;20.30;17.37;;;10.90;99.90;;;;;;5087298;28;20394;-77
2024/02/17 10:52:42;;;;;;;19.80;16.83;;;10.80;99.90;;;;;;5087987;28;20405;-77
2024/02/17 10:55:13;;;;;;;19.08;16.08;;;10.90;99.90;;;;;;5088275;28;20410;-78
2024/02/17 10:58:10;;;;;;;19.50;16.13;;;11.10;99.90;;;;;;5090665;28;20393;-77
2024/02/17 11:00:43;;;;;;;19.90;17.15;;;11.10;99.90;;;;;;5091531;28;21121;-78
2024/02/17 11:03:10;;;;;;;20.02;16.63;;;11.10;99.90;;;;;;5091829;28;21075;-78
2024/02/17 11:05:38;;;;;;;17.70;15.80;;;11.20;99.90;;;;;;5092649;28;20409;-77
2024/02/17 11:08:05;;;;;;;17.70;15.90;;;11.30;99.90;;;;;;5092072;28;20390;-78
2024/02/17 11:10:32;;;;;;;17.88;15.90;;;11.60;99.90;;;;;;5091858;28;21347;-78
2024/02/17 11:12:59;;;;;;;19.65;15.40;;;11.60;99.90;;;;;;5088539;28;20441;-78
2024/02/17 11:15:25;;;;;;;16.20;14.50;;;11.70;99.90;;;;;;5090600;28;20779;-78
2024/02/17 11:17:59;;;;;;;18.83;15.30;;;11.50;99.90;;;;;;5094030;28;20465;-76
2024/02/17 11:20:25;;;;;;;19.10;15.55;;;11.60;99.90;;;;;;5091450;28;20412;-76
2024/02/17 11:23:00;;;;;;;16.30;14.60;;;11.60;99.90;;;;;;5092372;28;20386;-79
2024/02/17 11:25:30;;;;;;;16.40;14.70;;;12.00;99.90;;;;;;5093907;28;20526;-79
2024/02/17 11:28:00;;;;;;;15.70;14.10;;;12.10;99.90;;;;;;5092835;28;20409;-78
2024/02/17 11:30:26;;;;;;;15.75;14.05;;;12.10;99.90;;;;;;5089678;28;20825;-78
2024/02/17 11:33:04;;;;;;;16.80;14.93;;;12.10;99.90;;;;;;5099936;28;20390;-78
2024/02/17 11:35:30;;;;;;;15.90;14.20;;;12.00;99.90;;;;;;5092377;28;20800;-78
2024/02/17 11:37:56;;;;;;;15.00;13.23;;;12.30;99.90;;;;;;5090291;28;20414;-78
2024/02/17 11:40:24;;;;;;;13.65;12.25;;;12.20;99.90;;;;;;5092593;28;20390;-78
2024/02/17 11:42:54;;;;;;;14.05;12.63;;;12.00;99.90;;;;;;5091879;28;20378;-77
2024/02/17 11:45:19;;;;;;;14.70;12.80;;;12.30;99.90;;;;;;5091432;28;20526;-77
2024/02/17 11:47:45;;;;;;;14.70;13.20;;;12.00;99.90;;;;;;5091841;28;20430;-77
2024/02/17 11:50:11;;;;;;;15.23;13.00;;;12.20;99.90;;;;;;5090673;28;20401;-78
2024/02/17 11:52:40;;;;;;;13.97;12.47;;;12.40;99.90;;;;;;5093656;28;20382;-77
2024/02/17 11:55:07;;;;;;;14.27;12.88;;;11.90;99.90;;;;;;5091868;28;20484;-76
2024/02/17 11:57:33;;;;;;;15.30;12.77;;;12.20;99.90;;;;;;5092838;28;20389;-76
2024/02/17 11:59:58;;;;;;;13.30;11.90;;;12.30;99.90;;;;;;5092543;28;20378;-78
2024/02/17 12:02:26;;;;;;;13.02;11.63;;;12.50;99.90;;;;;;5092698;28;20759;-78
2024/02/17 12:04:52;;;;;;;13.55;11.25;;;12.40;99.90;;;;;;5093333;28;20435;-78
2024/02/17 12:07:17;;;;;;;13.67;12.27;;;12.50;99.90;;;;;;5094177;28;20731;-78
2024/02/17 12:09:44;;;;;;;12.57;11.37;;;12.70;99.90;;;;;;5093449;28;20373;-78
2024/02/17 12:12:09;;;;;;;12.50;11.30;;;12.70;99.90;;;;;;5093391;28;20862;-78
2024/02/17 12:14:35;;;;;;;12.23;11.10;;;12.80;99.90;;;;;;5093581;28;20398;-78
2024/02/17 12:17:01;;;;;;;11.68;10.57;;;12.70;99.90;;;;;;5095531;28;20382;-77
2024/02/17 12:19:27;;;;;;;12.23;10.25;;;13.00;99.90;;;;;;5096574;28;20427;-78
2024/02/17 12:21:53;;;;;;;10.43;9.33;;;13.00;99.90;;;;;;5094372;28;20393;-77
2024/02/17 12:24:19;;;;;;;10.52;9.52;;;12.80;99.90;;;;;;5097419;28;20735;-77
2024/02/17 12:26:45;;;;;;;11.80;9.80;;;12.90;99.90;;;;;;5095535;28;20409;-78
2024/02/17 12:29:10;;;;;;;9.77;8.77;;;13.00;99.90;;;;;;5094884;28;20401;-77
2024/02/17 12:31:36;;;;;;;10.07;8.77;;;12.60;99.90;;;;;;5092334;28;20388;-78
2024/02/17 12:34:02;;;;;;;10.48;9.40;;;12.70;99.90;;;;;;5092341;28;20390;-77
2024/02/17 12:36:29;;;;;;;9.30;8.30;;;12.90;99.90;;;;;;5091265;28;20457;-77